createdAt,value
2022-10-30T00:00:17.008Z,6.00
2022-10-30T00:01:17.025Z,5.60
2022-10-30T00:02:17.132Z,5.90
2022-10-30T00:03:17.164Z,6.40
2022-10-30T00:04:16.964Z,6.20
2022-10-30T00:05:16.954Z,6.40
2022-10-30T00:07:16.932Z,6.10
2022-10-30T00:08:16.919Z,5.90
2022-10-30T00:09:16.914Z,6.10
2022-10-30T00:10:16.897Z,6.10
2022-10-30T00:11:16.904Z,6.60
2022-10-30T00:12:16.874Z,6.20
2022-10-30T00:13:16.865Z,6.00
2022-10-30T00:14:16.854Z,6.30
2022-10-30T00:15:16.849Z,6.30
2022-10-30T00:16:16.833Z,6.40
2022-10-30T00:17:16.821Z,6.00
2022-10-30T00:18:16.809Z,6.30
2022-10-30T00:19:16.798Z,6.10
2022-10-30T00:20:16.787Z,6.30
2022-10-30T00:21:16.797Z,5.90
2022-10-30T00:22:16.765Z,6.10
2022-10-30T00:23:16.756Z,6.00
2022-10-30T00:24:16.747Z,6.30
2022-10-30T00:25:16.731Z,6.20
2022-10-30T00:26:16.727Z,6.20
2022-10-30T00:27:16.730Z,6.60
2022-10-30T00:28:16.697Z,6.10
2022-10-30T00:29:16.686Z,6.20
2022-10-30T00:30:16.674Z,6.40
2022-10-30T00:31:16.674Z,6.20
2022-10-30T00:32:16.653Z,6.30
2022-10-30T00:33:16.648Z,6.30
2022-10-30T00:34:16.631Z,6.10
2022-10-30T00:35:16.621Z,6.30
2022-10-30T00:36:16.612Z,6.00
2022-10-30T00:37:16.598Z,6.20
2022-10-30T00:38:16.587Z,6.30
2022-10-30T00:39:16.598Z,6.20
2022-10-30T00:40:16.565Z,6.10
2022-10-30T00:41:16.568Z,6.30
2022-10-30T00:42:16.546Z,6.40
2022-10-30T00:43:16.550Z,6.40
2022-10-30T00:44:16.525Z,6.10
2022-10-30T00:45:16.516Z,5.90
2022-10-30T00:46:16.498Z,6.30
2022-10-30T00:47:16.487Z,6.00
2022-10-30T00:48:16.476Z,5.90
2022-10-30T00:49:16.466Z,6.00
2022-10-30T00:50:16.592Z,6.20
2022-10-30T00:51:16.450Z,6.30
2022-10-30T00:52:16.432Z,5.90
2022-10-30T00:53:16.421Z,6.30
2022-10-30T00:54:16.409Z,5.60
2022-10-30T00:55:16.398Z,6.20
2022-10-30T00:56:16.388Z,6.10
2022-10-30T00:57:16.391Z,6.60
2022-10-30T00:58:16.366Z,6.10
2022-10-30T00:59:16.371Z,6.20
2022-10-30T01:00:16.346Z,6.30
2022-10-30T01:01:16.443Z,6.80
2022-10-30T01:02:16.526Z,6.30
2022-10-30T01:03:16.331Z,6.20
2022-10-30T01:04:16.299Z,6.10
2022-10-30T01:05:16.292Z,6.30
2022-10-30T01:06:16.276Z,6.10
2022-10-30T01:07:16.266Z,6.60
2022-10-30T01:08:16.320Z,6.00
2022-10-30T01:09:16.446Z,6.20
2022-10-30T01:10:16.236Z,6.40
2022-10-30T01:11:16.221Z,6.30
2022-10-30T01:12:16.210Z,6.50
2022-10-30T01:13:16.200Z,6.50
2022-10-30T01:14:16.191Z,6.10
2022-10-30T01:15:16.200Z,6.30
2022-10-30T01:16:16.165Z,6.40
2022-10-30T01:17:16.156Z,6.30
2022-10-30T01:18:16.146Z,6.50
2022-10-30T01:19:16.133Z,6.50
2022-10-30T01:20:16.126Z,6.50
2022-10-30T01:21:16.115Z,6.40
2022-10-30T01:22:16.099Z,6.30
2022-10-30T01:23:16.088Z,6.50
2022-10-30T01:24:16.078Z,6.40
2022-10-30T01:25:16.066Z,6.60
2022-10-30T01:26:16.100Z,6.60
2022-10-30T01:27:16.050Z,6.10
2022-10-30T01:28:16.032Z,6.00
2022-10-30T01:29:16.021Z,6.00
2022-10-30T01:30:16.011Z,6.40
2022-10-30T01:31:16.015Z,6.60
2022-10-30T01:32:15.989Z,6.10
2022-10-30T01:33:15.998Z,6.30
2022-10-30T01:34:15.979Z,6.60
2022-10-30T01:35:15.961Z,6.10
2022-10-30T01:36:15.946Z,6.40
2022-10-30T01:37:15.935Z,6.00
2022-10-30T01:38:15.930Z,5.80
2022-10-30T01:39:15.939Z,6.10
2022-10-30T01:40:15.900Z,6.50
2022-10-30T01:41:15.889Z,6.10
2022-10-30T01:42:15.878Z,6.00
2022-10-30T01:43:15.866Z,6.40
2022-10-30T01:44:15.855Z,6.30
2022-10-30T01:45:15.868Z,6.60
2022-10-30T01:46:15.832Z,6.60
2022-10-30T01:47:15.845Z,6.40
2022-10-30T01:48:15.811Z,6.30
2022-10-30T01:49:15.901Z,6.60
2022-10-30T01:50:15.788Z,6.30
2022-10-30T01:51:15.788Z,6.40
2022-10-30T01:52:15.767Z,6.70
2022-10-30T01:53:15.757Z,6.30
2022-10-30T01:54:15.745Z,6.30
2022-10-30T01:55:15.734Z,6.50
2022-10-30T01:56:15.724Z,6.30
2022-10-30T01:57:15.718Z,6.20
2022-10-30T01:58:15.701Z,6.40
2022-10-30T01:59:15.690Z,6.40
2022-10-30T02:00:15.686Z,6.70
2022-10-30T02:01:15.794Z,6.50
2022-10-30T02:02:15.797Z,6.20
2022-10-30T02:03:15.671Z,6.40
2022-10-30T02:04:15.634Z,6.30
2022-10-30T02:05:15.623Z,6.60
2022-10-30T02:06:15.611Z,6.50
2022-10-30T02:07:15.601Z,6.20
2022-10-30T02:08:15.591Z,6.50
2022-10-30T02:09:15.599Z,6.30
2022-10-30T02:10:15.567Z,6.30
2022-10-30T02:11:15.558Z,6.40
2022-10-30T02:12:15.547Z,6.40
2022-10-30T02:13:15.536Z,6.40
2022-10-30T02:14:15.524Z,6.30
2022-10-30T02:15:15.541Z,6.80
2022-10-30T02:16:15.502Z,6.50
2022-10-30T02:17:15.519Z,6.20
2022-10-30T02:18:15.481Z,6.10
2022-10-30T02:19:15.497Z,6.40
2022-10-30T02:20:15.463Z,6.70
2022-10-30T02:21:15.471Z,6.80
2022-10-30T02:22:15.490Z,6.10
2022-10-30T02:23:15.426Z,6.50
2022-10-30T02:24:15.412Z,6.20
2022-10-30T02:25:15.403Z,6.50
2022-10-30T02:26:15.391Z,6.60
2022-10-30T02:27:15.385Z,6.30
2022-10-30T02:28:15.368Z,6.10
2022-10-30T02:29:15.358Z,6.70
2022-10-30T02:30:15.347Z,6.30
2022-10-30T02:31:15.334Z,6.90
2022-10-30T02:32:15.324Z,6.60
2022-10-30T02:33:15.372Z,6.30
2022-10-30T02:34:15.303Z,6.50
2022-10-30T02:35:15.320Z,6.50
2022-10-30T02:36:15.284Z,6.30
2022-10-30T02:37:15.269Z,6.60
2022-10-30T02:38:15.258Z,6.50
2022-10-30T02:39:15.254Z,6.50
2022-10-30T02:40:15.238Z,6.30
2022-10-30T02:41:15.227Z,6.50
2022-10-30T02:42:15.213Z,6.40
2022-10-30T02:43:15.203Z,6.40
2022-10-30T02:44:15.190Z,6.60
2022-10-30T02:45:15.217Z,6.40
2022-10-30T02:46:15.170Z,6.20
2022-10-30T02:47:15.158Z,6.50
2022-10-30T02:48:15.151Z,6.50
2022-10-30T02:49:15.137Z,6.50
2022-10-30T02:50:15.125Z,6.70
2022-10-30T02:51:15.147Z,6.50
2022-10-30T02:52:15.103Z,7.00
2022-10-30T02:53:15.090Z,6.60
2022-10-30T02:54:15.080Z,6.70
2022-10-30T02:55:15.072Z,6.30
2022-10-30T02:56:15.060Z,6.30
2022-10-30T02:57:15.056Z,5.90
2022-10-30T02:58:15.038Z,6.40
2022-10-30T02:59:15.028Z,6.50
2022-10-30T03:00:15.017Z,6.30
2022-10-30T03:01:15.129Z,6.40
2022-10-30T03:02:15.075Z,6.30
2022-10-30T03:03:17.517Z,6.70
2022-10-30T03:04:15.968Z,6.20
2022-10-30T03:05:14.959Z,6.50
2022-10-30T03:06:14.947Z,6.60
2022-10-30T03:07:14.953Z,6.40
2022-10-30T03:08:14.930Z,7.00
2022-10-30T03:09:14.919Z,6.40
2022-10-30T03:10:14.903Z,6.60
2022-10-30T03:11:14.911Z,6.40
2022-10-30T03:12:14.882Z,6.10
2022-10-30T03:13:14.870Z,7.00
2022-10-30T03:14:14.858Z,6.30
2022-10-30T03:15:14.855Z,6.70
2022-10-30T03:16:14.838Z,6.70
2022-10-30T03:17:14.826Z,6.50
2022-10-30T03:18:14.814Z,6.60
2022-10-30T03:19:14.804Z,5.90
2022-10-30T03:20:14.792Z,6.80
2022-10-30T03:21:14.814Z,6.60
2022-10-30T03:22:14.773Z,6.30
2022-10-30T03:23:14.779Z,6.50
2022-10-30T03:24:14.748Z,6.60
2022-10-30T03:25:14.744Z,6.80
2022-10-30T03:26:14.728Z,6.20
2022-10-30T03:27:14.734Z,6.50
2022-10-30T03:28:14.703Z,6.80
2022-10-30T03:29:14.693Z,6.60
2022-10-30T03:30:14.681Z,6.30
2022-10-30T03:31:14.670Z,6.30
2022-10-30T03:32:14.773Z,6.90
2022-10-30T03:33:14.655Z,6.70
2022-10-30T03:34:14.637Z,6.60
2022-10-30T03:35:14.626Z,6.60
2022-10-30T03:36:14.614Z,6.40
2022-10-30T03:37:14.604Z,6.70
2022-10-30T03:38:14.593Z,6.50
2022-10-30T03:39:14.607Z,6.20
2022-10-30T03:40:14.571Z,6.90
2022-10-30T03:41:14.559Z,6.50
2022-10-30T03:42:14.550Z,6.60
2022-10-30T03:43:14.541Z,6.70
2022-10-30T03:44:14.527Z,6.50
2022-10-30T03:45:14.521Z,6.60
2022-10-30T03:46:14.504Z,6.60
2022-10-30T03:47:14.497Z,6.50
2022-10-30T03:48:14.483Z,7.00
2022-10-30T03:49:14.471Z,6.50
2022-10-30T03:50:14.459Z,6.70
2022-10-30T03:51:14.481Z,6.50
2022-10-30T03:52:14.438Z,6.60
2022-10-30T03:53:14.426Z,6.60
2022-10-30T03:54:14.420Z,6.60
2022-10-30T03:55:14.422Z,6.70
2022-10-30T03:56:14.394Z,6.60
2022-10-30T03:57:14.403Z,6.50
2022-10-30T03:58:14.371Z,6.80
2022-10-30T03:59:14.365Z,6.60
2022-10-30T04:00:14.355Z,6.70
2022-10-30T04:01:14.502Z,6.70
2022-10-30T04:02:14.475Z,6.70
2022-10-30T04:03:14.344Z,6.50
2022-10-30T04:04:14.304Z,6.70
2022-10-30T04:05:14.297Z,6.60
2022-10-30T04:06:14.282Z,6.60
2022-10-30T04:07:14.290Z,6.60
2022-10-30T04:08:14.260Z,6.50
2022-10-30T04:09:14.257Z,6.80
2022-10-30T04:10:17.858Z,6.20
2022-10-30T04:11:15.288Z,6.50
2022-10-30T04:12:14.216Z,6.50
2022-10-30T04:13:14.211Z,6.50
2022-10-30T04:14:14.195Z,6.70
2022-10-30T04:15:14.189Z,6.70
2022-10-30T04:16:14.172Z,6.80
2022-10-30T04:17:14.165Z,6.50
2022-10-30T04:18:14.155Z,6.30
2022-10-30T04:19:14.139Z,6.30
2022-10-30T04:20:14.138Z,7.00
2022-10-30T04:21:14.124Z,6.90
2022-10-30T04:22:14.106Z,6.80
2022-10-30T04:23:14.095Z,6.60
2022-10-30T04:24:14.083Z,6.40
2022-10-30T04:25:14.077Z,6.50
2022-10-30T04:26:14.063Z,6.40
2022-10-30T04:27:14.084Z,6.80
2022-10-30T04:28:14.043Z,6.70
2022-10-30T04:29:14.029Z,6.60
2022-10-30T04:30:14.017Z,6.50
2022-10-30T04:31:14.006Z,6.70
2022-10-30T04:32:13.997Z,6.40
2022-10-30T04:33:14.014Z,6.50
2022-10-30T04:34:13.976Z,6.50
2022-10-30T04:35:13.962Z,6.80
2022-10-30T04:36:13.950Z,6.60
2022-10-30T04:37:13.940Z,6.30
2022-10-30T04:38:13.928Z,6.60
2022-10-30T04:39:13.941Z,6.60
2022-10-30T04:40:13.908Z,6.20
2022-10-30T04:41:13.933Z,6.50
2022-10-30T04:42:13.884Z,6.70
2022-10-30T04:43:13.894Z,6.60
2022-10-30T04:44:13.861Z,6.40
2022-10-30T04:45:15.226Z,7.10
2022-10-30T04:46:13.848Z,6.50
2022-10-30T04:47:13.828Z,6.60
2022-10-30T04:48:13.820Z,6.50
2022-10-30T04:49:13.807Z,6.40
2022-10-30T04:50:13.796Z,6.70
2022-10-30T04:51:13.790Z,6.70
2022-10-30T04:52:13.778Z,6.70
2022-10-30T04:53:13.765Z,6.40
2022-10-30T04:54:13.751Z,6.50
2022-10-30T04:55:13.739Z,6.70
2022-10-30T04:56:13.729Z,6.50
2022-10-30T04:57:13.740Z,6.10
2022-10-30T04:58:13.714Z,6.80
2022-10-30T04:59:13.712Z,6.60
2022-10-30T05:00:13.707Z,6.50
2022-10-30T05:01:13.853Z,6.40
2022-10-30T05:02:13.901Z,7.00
2022-10-30T05:03:13.671Z,6.60
2022-10-30T05:04:13.639Z,6.40
2022-10-30T05:05:13.629Z,6.20
2022-10-30T05:06:13.617Z,6.60
2022-10-30T05:07:13.606Z,6.90
2022-10-30T05:08:13.597Z,6.90
2022-10-30T05:09:13.614Z,6.70
2022-10-30T05:10:13.573Z,6.80
2022-10-30T05:11:13.564Z,6.60
2022-10-30T05:12:13.551Z,6.60
2022-10-30T05:13:13.541Z,6.50
2022-10-30T05:14:13.529Z,6.40
2022-10-30T05:15:13.564Z,6.40
2022-10-30T05:16:13.551Z,6.80
2022-10-30T05:17:13.531Z,6.30
2022-10-30T05:18:13.536Z,6.80
2022-10-30T05:19:13.491Z,6.30
2022-10-30T05:20:16.336Z,6.60
2022-10-30T05:21:14.460Z,6.40
2022-10-30T05:22:13.441Z,6.50
2022-10-30T05:23:13.430Z,6.50
2022-10-30T05:24:13.425Z,6.60
2022-10-30T05:25:13.408Z,6.40
2022-10-30T05:26:13.396Z,6.60
2022-10-30T05:27:13.391Z,6.70
2022-10-30T05:28:13.374Z,6.80
2022-10-30T05:29:13.362Z,6.40
2022-10-30T05:30:13.357Z,6.70
2022-10-30T05:31:13.358Z,6.70
2022-10-30T05:33:13.325Z,6.30
2022-10-30T05:34:13.308Z,6.80
2022-10-30T05:35:13.300Z,6.30
2022-10-30T05:36:13.286Z,6.60
2022-10-30T05:37:13.273Z,6.50
2022-10-30T05:38:13.264Z,6.30
2022-10-30T05:39:13.267Z,6.30
2022-10-30T05:40:13.241Z,6.50
2022-10-30T05:41:13.254Z,6.60
2022-10-30T05:42:14.020Z,6.30
2022-10-30T05:43:13.210Z,6.70
2022-10-30T05:44:13.197Z,6.50
2022-10-30T05:45:13.205Z,6.70
2022-10-30T05:46:13.174Z,6.60
2022-10-30T05:47:13.181Z,6.60
2022-10-30T05:48:13.152Z,6.60
2022-10-30T05:49:13.141Z,6.40
2022-10-30T05:50:13.130Z,6.60
2022-10-30T05:51:13.124Z,6.40
2022-10-30T05:52:13.109Z,6.90
2022-10-30T05:53:13.099Z,6.50
2022-10-30T05:54:13.089Z,6.50
2022-10-30T05:55:13.074Z,6.50
2022-10-30T05:56:13.064Z,6.60
2022-10-30T05:57:13.077Z,6.80
2022-10-30T05:58:13.041Z,6.40
2022-10-30T05:59:13.031Z,6.50
2022-10-30T06:00:13.019Z,6.70
2022-10-30T06:01:13.041Z,6.40
2022-10-30T06:02:13.101Z,6.70
2022-10-30T06:03:13.014Z,6.70
2022-10-30T06:04:12.975Z,6.40
2022-10-30T06:05:12.963Z,6.10
2022-10-30T06:06:12.958Z,6.50
2022-10-30T06:07:12.941Z,6.80
2022-10-30T06:08:12.930Z,6.60
2022-10-30T06:09:12.925Z,6.80
2022-10-30T06:10:12.909Z,6.40
2022-10-30T06:11:12.897Z,6.60
2022-10-30T06:12:12.887Z,6.80
2022-10-30T06:13:12.874Z,6.60
2022-10-30T06:14:12.864Z,7.20
2022-10-30T06:15:12.885Z,6.80
2022-10-30T06:16:12.845Z,6.60
2022-10-30T06:17:12.832Z,7.00
2022-10-30T06:18:12.821Z,6.70
2022-10-30T06:19:17.350Z,6.80
2022-10-30T06:20:13.815Z,6.80
2022-10-30T06:21:12.787Z,6.40
2022-10-30T06:22:12.775Z,6.60
2022-10-30T06:23:12.764Z,6.80
2022-10-30T06:24:12.753Z,6.40
2022-10-30T06:25:12.742Z,6.60
2022-10-30T06:26:12.753Z,6.70
2022-10-30T06:27:12.720Z,6.60
2022-10-30T06:28:12.713Z,6.70
2022-10-30T06:29:12.699Z,6.50
2022-10-30T06:30:12.687Z,6.80
2022-10-30T06:31:12.741Z,6.70
2022-10-30T06:32:12.672Z,7.00
2022-10-30T06:33:12.654Z,6.90
2022-10-30T06:34:12.645Z,7.00
2022-10-30T06:35:12.653Z,6.80
2022-10-30T06:36:12.621Z,6.80
2022-10-30T06:37:12.665Z,6.80
2022-10-30T06:38:12.606Z,6.90
2022-10-30T06:39:12.587Z,6.90
2022-10-30T06:40:12.585Z,6.40
2022-10-30T06:41:12.565Z,6.80
2022-10-30T06:42:12.556Z,6.70
2022-10-30T06:43:12.542Z,6.60
2022-10-30T06:44:12.540Z,6.80
2022-10-30T06:45:12.521Z,6.60
2022-10-30T06:46:12.511Z,6.50
2022-10-30T06:47:12.498Z,6.90
2022-10-30T06:48:12.486Z,6.90
2022-10-30T06:49:12.477Z,7.10
2022-10-30T06:50:12.496Z,6.90
2022-10-30T06:51:12.473Z,6.50
2022-10-30T06:52:12.442Z,7.00
2022-10-30T06:53:12.525Z,6.60
2022-10-30T06:54:12.423Z,7.20
2022-10-30T06:55:12.409Z,7.10
2022-10-30T06:56:12.416Z,6.80
2022-10-30T06:57:12.388Z,6.80
2022-10-30T06:58:12.377Z,6.50
2022-10-30T06:59:12.366Z,6.90
2022-10-30T07:00:12.355Z,6.80
2022-10-30T07:01:12.351Z,6.60
2022-10-30T07:02:12.445Z,6.40
2022-10-30T07:03:12.320Z,6.70
2022-10-30T07:04:12.310Z,6.80
2022-10-30T07:05:12.298Z,6.50
2022-10-30T07:06:12.295Z,6.60
2022-10-30T07:07:12.294Z,7.10
2022-10-30T07:08:12.280Z,6.40
2022-10-30T07:09:12.255Z,6.60
2022-10-30T07:10:12.243Z,6.80
2022-10-30T07:11:12.233Z,6.90
2022-10-30T07:12:12.222Z,6.60
2022-10-30T07:13:12.210Z,6.80
2022-10-30T07:14:12.206Z,6.90
2022-10-30T07:15:12.187Z,6.40
2022-10-30T07:16:12.176Z,6.60
2022-10-30T07:17:12.166Z,7.00
2022-10-30T07:18:12.155Z,7.00
2022-10-30T07:19:12.144Z,6.90
2022-10-30T07:20:12.164Z,6.80
2022-10-30T07:21:12.122Z,6.60
2022-10-30T07:22:12.111Z,6.90
2022-10-30T07:23:12.122Z,6.90
2022-10-30T07:24:12.087Z,6.80
2022-10-30T07:25:12.078Z,6.60
2022-10-30T07:26:12.088Z,6.80
2022-10-30T07:27:12.059Z,6.70
2022-10-30T07:28:12.043Z,6.70
2022-10-30T07:29:12.034Z,6.90
2022-10-30T07:30:12.041Z,6.90
2022-10-30T07:31:12.015Z,6.80
2022-10-30T07:32:12.014Z,7.10
2022-10-30T07:33:11.997Z,6.60
2022-10-30T07:34:11.978Z,6.60
2022-10-30T07:35:11.966Z,6.60
2022-10-30T07:36:11.955Z,6.60
2022-10-30T07:37:11.943Z,7.00
2022-10-30T07:38:11.952Z,6.50
2022-10-30T07:39:11.943Z,6.60
2022-10-30T07:40:13.165Z,6.90
2022-10-30T07:41:11.905Z,6.70
2022-10-30T07:42:11.901Z,6.60
2022-10-30T07:43:11.879Z,6.40
2022-10-30T07:44:11.876Z,6.90
2022-10-30T07:45:11.865Z,6.50
2022-10-30T07:46:11.849Z,6.90
2022-10-30T07:47:11.833Z,6.60
2022-10-30T07:48:11.822Z,6.80
2022-10-30T07:49:11.813Z,7.10
2022-10-30T07:50:11.811Z,6.60
2022-10-30T07:51:11.814Z,7.00
2022-10-30T07:52:16.297Z,6.60
2022-10-30T07:53:12.769Z,6.70
2022-10-30T07:54:11.777Z,6.70
2022-10-30T07:55:11.785Z,6.90
2022-10-30T07:56:11.753Z,6.80
2022-10-30T07:57:11.736Z,6.50
2022-10-30T07:58:11.719Z,6.40
2022-10-30T07:59:11.706Z,6.70
2022-10-30T08:00:11.692Z,6.50
2022-10-30T08:01:11.736Z,6.60
2022-10-30T08:02:11.833Z,6.60
2022-10-30T08:03:11.654Z,6.80
2022-10-30T08:04:11.645Z,6.70
2022-10-30T08:05:11.635Z,7.20
2022-10-30T08:06:11.625Z,6.60
2022-10-30T08:07:11.611Z,6.50
2022-10-30T08:08:11.625Z,6.80
2022-10-30T08:09:11.594Z,6.40
2022-10-30T08:10:11.578Z,6.60
2022-10-30T08:11:11.586Z,6.60
2022-10-30T08:12:11.557Z,6.40
2022-10-30T08:13:11.545Z,6.70
2022-10-30T08:14:11.541Z,7.10
2022-10-30T08:15:11.522Z,6.60
2022-10-30T08:16:11.513Z,6.40
2022-10-30T08:17:11.500Z,6.40
2022-10-30T08:18:11.491Z,6.50
2022-10-30T08:19:11.478Z,6.30
2022-10-30T08:20:11.475Z,6.50
2022-10-30T08:21:11.458Z,6.80
2022-10-30T08:22:11.445Z,6.30
2022-10-30T08:23:11.437Z,6.80
2022-10-30T08:24:11.426Z,6.50
2022-10-30T08:25:11.412Z,6.30
2022-10-30T08:26:11.422Z,6.50
2022-10-30T08:27:11.409Z,6.80
2022-10-30T08:28:11.378Z,7.20
2022-10-30T08:29:11.367Z,6.70
2022-10-30T08:30:11.358Z,6.40
2022-10-30T08:31:11.347Z,6.60
2022-10-30T08:32:11.343Z,6.40
2022-10-30T08:33:11.324Z,6.90
2022-10-30T08:34:11.313Z,6.90
2022-10-30T08:35:13.465Z,6.80
2022-10-30T08:36:11.290Z,6.80
2022-10-30T08:37:11.280Z,6.90
2022-10-30T08:38:11.299Z,6.70
2022-10-30T08:39:11.257Z,6.80
2022-10-30T08:40:11.250Z,6.80
2022-10-30T08:41:11.235Z,7.00
2022-10-30T08:42:11.224Z,7.20
2022-10-30T08:43:11.232Z,6.30
2022-10-30T08:44:11.208Z,6.70
2022-10-30T08:45:11.191Z,6.90
2022-10-30T08:46:11.181Z,6.90
2022-10-30T08:47:11.170Z,6.70
2022-10-30T08:48:11.158Z,6.30
2022-10-30T08:49:11.149Z,6.70
2022-10-30T08:50:11.209Z,6.90
2022-10-30T08:51:11.128Z,6.50
2022-10-30T08:52:11.114Z,6.80
2022-10-30T08:53:11.104Z,6.40
2022-10-30T08:54:11.092Z,7.10
2022-10-30T08:55:11.080Z,6.20
2022-10-30T08:56:11.077Z,6.80
2022-10-30T08:57:11.059Z,7.00
2022-10-30T08:58:11.046Z,6.50
2022-10-30T08:59:11.056Z,6.70
2022-10-30T09:00:11.026Z,6.40
2022-10-30T09:01:11.075Z,7.10
2022-10-30T09:02:11.166Z,7.10
2022-10-30T09:03:10.992Z,6.50
2022-10-30T09:04:10.981Z,7.10
2022-10-30T09:05:10.971Z,6.90
2022-10-30T09:06:10.960Z,7.50
2022-10-30T09:07:12.968Z,7.00
2022-10-30T09:08:10.943Z,7.00
2022-10-30T09:09:10.926Z,7.10
2022-10-30T09:10:10.915Z,6.90
2022-10-30T09:11:10.905Z,7.10
2022-10-30T09:12:10.895Z,7.00
2022-10-30T09:13:10.881Z,6.90
2022-10-30T09:14:10.903Z,7.10
2022-10-30T09:15:10.876Z,6.80
2022-10-30T09:16:10.852Z,7.30
2022-10-30T09:17:10.839Z,7.20
2022-10-30T09:18:10.831Z,7.10
2022-10-30T09:19:14.724Z,6.60
2022-10-30T09:20:11.832Z,7.20
2022-10-30T09:21:10.794Z,7.10
2022-10-30T09:22:10.782Z,7.00
2022-10-30T09:23:10.773Z,6.90
2022-10-30T09:24:10.760Z,6.50
2022-10-30T09:25:10.751Z,6.90
2022-10-30T09:26:10.745Z,7.10
2022-10-30T09:27:10.728Z,7.30
2022-10-30T09:28:10.716Z,6.60
2022-10-30T09:29:10.705Z,6.90
2022-10-30T09:30:10.694Z,6.50
2022-10-30T09:31:10.701Z,6.60
2022-10-30T09:32:10.680Z,6.90
2022-10-30T09:33:10.671Z,6.70
2022-10-30T09:34:10.650Z,6.50
2022-10-30T09:35:10.640Z,7.40
2022-10-30T09:36:10.628Z,6.70
2022-10-30T09:37:10.621Z,6.80
2022-10-30T09:38:10.612Z,6.80
2022-10-30T09:39:10.595Z,6.60
2022-10-30T09:40:10.584Z,7.10
2022-10-30T09:41:10.576Z,6.80
2022-10-30T09:42:10.562Z,6.80
2022-10-30T09:43:10.555Z,6.60
2022-10-30T09:44:10.545Z,6.40
2022-10-30T09:45:31.340Z,6.50
2022-10-30T09:46:11.518Z,6.90
2022-10-30T09:47:10.524Z,6.80
2022-10-30T09:48:10.495Z,6.50
2022-10-30T09:50:10.493Z,6.60
2022-10-30T09:51:10.465Z,6.10
2022-10-30T09:52:10.451Z,6.50
2022-10-30T09:53:10.442Z,6.80
2022-10-30T09:54:10.429Z,6.80
2022-10-30T09:55:10.419Z,6.50
2022-10-30T09:56:10.429Z,6.60
2022-10-30T09:57:10.398Z,6.50
2022-10-30T09:58:10.385Z,7.00
2022-10-30T09:59:10.375Z,6.40
2022-10-30T10:00:10.375Z,6.40
2022-10-30T10:01:10.420Z,6.60
2022-10-30T10:02:10.447Z,6.20
2022-10-30T10:03:10.346Z,6.40
2022-10-30T10:04:10.318Z,6.50
2022-10-30T10:05:10.309Z,6.50
2022-10-30T10:06:10.296Z,6.20
2022-10-30T10:07:10.288Z,6.60
2022-10-30T10:08:10.283Z,6.50
2022-10-30T10:09:10.264Z,6.30
2022-10-30T10:10:10.343Z,6.60
2022-10-30T10:11:10.243Z,6.00
2022-10-30T10:12:10.232Z,6.80
2022-10-30T10:13:10.219Z,6.50
2022-10-30T10:14:10.261Z,6.20
2022-10-30T10:15:10.199Z,6.40
2022-10-30T10:16:10.186Z,6.30
2022-10-30T10:17:10.176Z,6.30
2022-10-30T10:18:10.166Z,6.40
2022-10-30T10:19:10.172Z,6.60
2022-10-30T10:20:10.160Z,6.40
2022-10-30T10:21:10.139Z,6.00
2022-10-30T10:22:10.120Z,6.60
2022-10-30T10:23:10.110Z,6.60
2022-10-30T10:24:10.100Z,6.30
2022-10-30T10:25:10.089Z,6.50
2022-10-30T10:26:10.109Z,5.80
2022-10-30T10:27:10.071Z,6.10
2022-10-30T10:28:10.055Z,6.00
2022-10-30T10:29:10.050Z,6.10
2022-10-30T10:30:10.039Z,6.40
2022-10-30T10:31:10.025Z,6.00
2022-10-30T10:32:10.018Z,5.90
2022-10-30T10:33:10.040Z,6.10
2022-10-30T10:34:09.990Z,6.50
2022-10-30T10:35:09.995Z,5.50
2022-10-30T10:36:09.969Z,6.10
2022-10-30T10:37:09.957Z,5.80
2022-10-30T10:38:09.952Z,6.20
2022-10-30T10:39:09.935Z,5.70
2022-10-30T10:40:09.924Z,6.00
2022-10-30T10:41:09.916Z,6.00
2022-10-30T10:42:09.902Z,5.90
2022-10-30T10:43:09.895Z,5.60
2022-10-30T10:44:09.887Z,6.20
2022-10-30T10:45:09.869Z,6.10
2022-10-30T10:46:09.858Z,5.90
2022-10-30T10:47:09.847Z,6.00
2022-10-30T10:48:09.916Z,6.20
2022-10-30T10:49:09.825Z,6.20
2022-10-30T10:50:09.821Z,5.90
2022-10-30T10:51:09.824Z,5.90
2022-10-30T10:52:09.792Z,5.90
2022-10-30T10:53:09.781Z,5.80
2022-10-30T10:54:09.773Z,5.70
2022-10-30T10:55:09.759Z,5.60
2022-10-30T10:56:09.768Z,6.40
2022-10-30T10:57:09.738Z,6.00
2022-10-30T10:58:09.726Z,6.20
2022-10-30T10:59:09.715Z,5.80
2022-10-30T11:00:09.707Z,6.00
2022-10-30T11:01:09.765Z,5.80
2022-10-30T11:02:09.843Z,5.50
2022-10-30T11:03:09.727Z,5.40
2022-10-30T11:04:09.660Z,5.90
2022-10-30T11:05:09.651Z,5.60
2022-10-30T11:06:09.640Z,5.70
2022-10-30T11:07:09.645Z,5.60
2022-10-30T11:08:09.623Z,5.70
2022-10-30T11:09:09.607Z,5.60
2022-10-30T11:10:09.595Z,5.60
2022-10-30T11:11:09.583Z,6.00
2022-10-30T11:12:09.572Z,6.00
2022-10-30T11:13:09.563Z,5.40
2022-10-30T11:14:09.566Z,5.90
2022-10-30T11:15:09.540Z,5.60
2022-10-30T11:16:09.533Z,5.80
2022-10-30T11:17:09.519Z,5.70
2022-10-30T11:18:09.523Z,5.90
2022-10-30T11:19:09.495Z,5.20
2022-10-30T11:20:09.517Z,5.50
2022-10-30T11:21:09.474Z,5.60
2022-10-30T11:22:09.465Z,5.80
2022-10-30T11:23:09.469Z,5.60
2022-10-30T11:24:09.441Z,6.10
2022-10-30T11:25:09.434Z,5.90
2022-10-30T11:26:09.427Z,5.80
2022-10-30T11:27:09.411Z,5.40
2022-10-30T11:28:09.398Z,5.80
2022-10-30T11:29:09.388Z,5.50
2022-10-30T11:30:09.376Z,5.30
2022-10-30T11:31:09.366Z,5.40
2022-10-30T11:32:09.373Z,5.40
2022-10-30T11:33:09.345Z,5.40
2022-10-30T11:34:09.334Z,5.50
2022-10-30T11:35:09.325Z,5.70
2022-10-30T11:36:14.573Z,5.80
2022-10-30T11:37:10.305Z,5.30
2022-10-30T11:38:09.290Z,5.40
2022-10-30T11:39:09.296Z,5.30
2022-10-30T11:40:09.270Z,5.40
2022-10-30T11:41:09.257Z,5.20
2022-10-30T11:42:09.245Z,5.70
2022-10-30T11:43:09.241Z,5.50
2022-10-30T11:44:09.225Z,5.60
2022-10-30T11:45:09.213Z,5.50
2022-10-30T11:46:09.202Z,5.70
2022-10-30T11:47:09.191Z,5.30
2022-10-30T11:48:13.499Z,5.30
2022-10-30T11:49:09.176Z,5.20
2022-10-30T11:50:09.160Z,5.20
2022-10-30T11:51:09.178Z,5.10
2022-10-30T11:52:09.136Z,5.50
2022-10-30T11:53:09.126Z,5.60
2022-10-30T11:54:09.116Z,5.30
2022-10-30T11:55:09.141Z,5.60
2022-10-30T11:56:09.094Z,5.30
2022-10-30T11:57:09.083Z,5.00
2022-10-30T11:58:09.070Z,5.30
2022-10-30T11:59:09.060Z,5.10
2022-10-30T12:00:09.050Z,5.20
2022-10-30T12:01:09.067Z,5.20
2022-10-30T12:02:09.236Z,4.90
2022-10-30T12:03:09.016Z,5.40
2022-10-30T12:04:09.010Z,5.40
2022-10-30T12:05:08.995Z,5.10
2022-10-30T12:06:08.983Z,5.40
2022-10-30T12:07:08.982Z,5.30
2022-10-30T12:08:08.961Z,5.20
2022-10-30T12:09:08.951Z,5.90
2022-10-30T12:10:08.941Z,5.30
2022-10-30T12:11:08.948Z,5.10
2022-10-30T12:12:08.920Z,5.40
2022-10-30T12:13:08.923Z,5.10
2022-10-30T12:14:08.896Z,5.50
2022-10-30T12:15:08.885Z,5.40
2022-10-30T12:16:08.873Z,5.30
2022-10-30T12:17:08.863Z,5.30
2022-10-30T12:18:08.854Z,5.20
2022-10-30T12:19:08.846Z,5.20
2022-10-30T12:20:08.830Z,5.10
2022-10-30T12:21:08.820Z,5.30
2022-10-30T12:22:09.854Z,5.20
2022-10-30T12:23:08.798Z,5.50
2022-10-30T12:24:08.787Z,5.30
2022-10-30T12:25:08.799Z,5.00
2022-10-30T12:26:08.765Z,5.00
2022-10-30T12:27:08.778Z,5.00
2022-10-30T12:28:08.744Z,5.20
2022-10-30T12:29:08.733Z,5.30
2022-10-30T12:30:09.946Z,5.20
2022-10-30T12:31:08.728Z,4.90
2022-10-30T12:32:08.700Z,5.20
2022-10-30T12:33:08.691Z,4.90
2022-10-30T12:34:08.736Z,5.10
2022-10-30T12:35:08.668Z,5.30
2022-10-30T12:36:08.658Z,4.90
2022-10-30T12:37:08.674Z,4.90
2022-10-30T12:38:08.636Z,5.00
2022-10-30T12:39:08.623Z,5.20
2022-10-30T12:40:08.613Z,5.00
2022-10-30T12:41:08.603Z,5.30
2022-10-30T12:42:08.591Z,5.00
2022-10-30T12:43:08.604Z,5.30
2022-10-30T12:44:08.571Z,4.70
2022-10-30T12:45:08.560Z,5.10
2022-10-30T12:46:08.548Z,4.70
2022-10-30T12:47:08.536Z,5.10
2022-10-30T12:48:08.526Z,5.00
2022-10-30T12:49:08.520Z,5.20
2022-10-30T12:50:08.506Z,5.30
2022-10-30T12:51:08.498Z,4.80
2022-10-30T12:52:08.482Z,4.90
2022-10-30T12:53:08.475Z,4.90
2022-10-30T12:54:08.460Z,5.00
2022-10-30T12:55:08.455Z,4.60
2022-10-30T12:56:08.437Z,4.80
2022-10-30T12:57:08.428Z,4.90
2022-10-30T12:58:08.419Z,4.60
2022-10-30T12:59:08.428Z,4.70
2022-10-30T13:00:08.395Z,4.60
2022-10-30T13:01:08.391Z,4.60
2022-10-30T13:02:08.483Z,5.00
2022-10-30T13:03:08.362Z,4.80
2022-10-30T13:04:08.353Z,4.90
2022-10-30T13:05:08.340Z,4.60
2022-10-30T13:06:08.334Z,4.80
2022-10-30T13:07:08.334Z,4.60
2022-10-30T13:08:08.309Z,4.90
2022-10-30T13:09:08.296Z,4.60
2022-10-30T13:10:08.285Z,4.90
2022-10-30T13:11:08.277Z,4.60
2022-10-30T13:12:08.267Z,4.90
2022-10-30T13:13:08.283Z,4.90
2022-10-30T13:14:08.240Z,4.90
2022-10-30T13:15:08.249Z,4.60
2022-10-30T13:16:08.219Z,5.00
2022-10-30T13:17:08.208Z,4.30
2022-10-30T13:18:08.199Z,4.60
2022-10-30T13:19:08.193Z,4.70
2022-10-30T13:20:08.176Z,4.60
2022-10-30T13:21:08.165Z,4.60